Weather at San Antonio International Airport

Public forecast

Using degrees Fahrenheit for public forecast. Weather courtesy of forecast.io.

Current aviation weather report (METAR) for San Antonio International Airport

2022/11/27 01:51 (retrieved 60 minutes ago)

KSAT 270151Z 21007KT 10SM CLR 13/05 A2986 RMK AO2 SLP100 T01330050

Closest aviation forecast (TAF) to San Antonio International Airport

Forecast is more than 6 hours old.

Closest forecast is Piedras Negras International Airport, 121.3 nm (224.6 km) WSW.

2022/11/26 18:21 (retrieved 8 hours ago)

TAF MMPG 261720Z 2618/2718 25010KT P6SM SKC FM270300 20008KT P6SM SKC FM271500 01006KT P6SM SKC